KP59

Copper Harbor Airport

Michigan, USA
METAR KP59 201151Z AUTO 34009G17KT 03/M02 A2964 RMK AO1 SLP045 T00281022 10050 20028 52024
Observed Flight Rules
Jan-20 @ 11:51 UTC (an hour ago)
Wind
340° at 9 knots
 Gusting to 17 knots
Temperatures Readings
Current 3°C / 37°F
Dewpoint -2°C / 28°F
Humidity 70%
Altimeter 29.64" Hg
Pressure 1004.5 hPa
Elevation 190
METAR KP59 201151Z AUTO 34009G17KT 03/M02 A2964 RMK AO1 SLP045 T00281022 10050 20028 52024
Observed Flight Rules
Jan-20 @ 11:51 UTC
(an hour ago)
Wind
340° at 9 knots
 Gusting to 17 knots
Temperature Dewpoint
3°C / 37°F -2°C / 28°F
Humidity Altimeter Pressure
70% 29.64" Hg 1004.5 hPa